sensor_id;sensor_type;location;lat;lon;timestamp;pressure;altitude;pressure_sealevel;temperature;humidity
66196;BME280;53000;45.182;5.736;2023-09-19T00:00:19;99335.09;;;20.55;70.21
66196;BME280;53000;45.182;5.736;2023-09-19T00:02:51;99328.97;;;20.53;69.93
66196;BME280;53000;45.182;5.736;2023-09-19T00:05:17;99331.13;;;20.51;70.06
66196;BME280;53000;45.182;5.736;2023-09-19T00:07:42;99335.88;;;20.44;70.70
66196;BME280;53000;45.182;5.736;2023-09-19T00:10:07;99323.91;;;20.38;70.26
66196;BME280;53000;45.182;5.736;2023-09-19T00:12:35;99328.78;;;20.36;70.61
66196;BME280;53000;45.182;5.736;2023-09-19T00:15:00;99332.38;;;20.37;70.58
66196;BME280;53000;45.182;5.736;2023-09-19T00:17:26;99338.47;;;20.39;70.70
66196;BME280;53000;45.182;5.736;2023-09-19T00:19:55;99338.25;;;20.40;70.88
66196;BME280;53000;45.182;5.736;2023-09-19T00:22:21;99331.94;;;20.40;70.68
66196;BME280;53000;45.182;5.736;2023-09-19T00:24:46;99335.03;;;20.43;71.15
66196;BME280;53000;45.182;5.736;2023-09-19T00:27:11;99340.78;;;20.42;70.52
66196;BME280;53000;45.182;5.736;2023-09-19T00:29:37;99338.88;;;20.42;70.25
66196;BME280;53000;45.182;5.736;2023-09-19T00:32:02;99336.59;;;20.39;70.40
66196;BME280;53000;45.182;5.736;2023-09-19T00:34:28;99342.44;;;20.43;70.54
66196;BME280;53000;45.182;5.736;2023-09-19T00:36:55;99340.78;;;20.42;70.57
66196;BME280;53000;45.182;5.736;2023-09-19T00:39:21;99328.91;;;20.41;70.27
66196;BME280;53000;45.182;5.736;2023-09-19T00:41:47;99331.44;;;20.43;70.32
66196;BME280;53000;45.182;5.736;2023-09-19T00:44:12;99321.28;;;20.43;70.31
66196;BME280;53000;45.182;5.736;2023-09-19T00:46:38;99335.63;;;20.46;70.02
66196;BME280;53000;45.182;5.736;2023-09-19T00:49:03;99341.13;;;20.46;70.32
66196;BME280;53000;45.182;5.736;2023-09-19T00:51:29;99336.50;;;20.46;70.09
66196;BME280;53000;45.182;5.736;2023-09-19T00:53:55;99334.59;;;20.47;69.82
66196;BME280;53000;45.182;5.736;2023-09-19T00:56:20;99328.47;;;20.45;69.60
66196;BME280;53000;45.182;5.736;2023-09-19T00:58:46;99331.22;;;20.45;70.22
66196;BME280;53000;45.182;5.736;2023-09-19T01:01:13;99337.03;;;20.36;70.53
66196;BME280;53000;45.182;5.736;2023-09-19T01:03:40;99339.28;;;20.28;70.19
66196;BME280;53000;45.182;5.736;2023-09-19T01:06:06;99333.88;;;20.21;70.65
66196;BME280;53000;45.182;5.736;2023-09-19T01:08:32;99329.91;;;20.17;70.59
66196;BME280;53000;45.182;5.736;2023-09-19T01:11:09;99339.66;;;20.13;71.09
66196;BME280;53000;45.182;5.736;2023-09-19T01:22:13;99329.69;;;20.00;71.30
66196;BME280;53000;45.182;5.736;2023-09-19T01:29:49;99332.03;;;19.96;71.15
66196;BME280;53000;45.182;5.736;2023-09-19T01:32:17;99326.41;;;19.91;71.44
66196;BME280;53000;45.182;5.736;2023-09-19T01:34:50;99326.41;;;19.91;71.75
66196;BME280;53000;45.182;5.736;2023-09-19T01:37:19;99325.94;;;19.94;72.05
66196;BME280;53000;45.182;5.736;2023-09-19T01:39:50;99329.91;;;19.98;71.57
66196;BME280;53000;45.182;5.736;2023-09-19T01:42:48;99337.47;;;20.03;71.68
66196;BME280;53000;45.182;5.736;2023-09-19T01:47:50;99329.47;;;20.01;71.29
66196;BME280;53000;45.182;5.736;2023-09-19T01:50:36;99324.94;;;20.07;71.20
66196;BME280;53000;45.182;5.736;2023-09-19T01:53:26;99322.78;;;20.09;71.30
66196;BME280;53000;45.182;5.736;2023-09-19T01:55:57;99319.38;;;20.14;70.96
66196;BME280;53000;45.182;5.736;2023-09-19T01:58:33;99313.28;;;20.12;71.02
66196;BME280;53000;45.182;5.736;2023-09-19T02:01:00;99319.22;;;20.09;71.11
66196;BME280;53000;45.182;5.736;2023-09-19T02:03:26;99318.38;;;20.08;71.68
66196;BME280;53000;45.182;5.736;2023-09-19T02:05:54;99304.88;;;20.07;71.55
66196;BME280;53000;45.182;5.736;2023-09-19T02:08:21;99310.97;;;20.09;71.39
66196;BME280;53000;45.182;5.736;2023-09-19T02:10:48;99316.69;;;20.07;71.56
66196;BME280;53000;45.182;5.736;2023-09-19T02:13:18;99318.16;;;20.10;71.74
66196;BME280;53000;45.182;5.736;2023-09-19T02:15:44;99324.00;;;20.13;72.14
66196;BME280;53000;45.182;5.736;2023-09-19T02:18:10;99329.69;;;20.18;71.78
66196;BME280;53000;45.182;5.736;2023-09-19T02:20:37;99324.31;;;20.23;71.69
66196;BME280;53000;45.182;5.736;2023-09-19T02:23:03;99323.88;;;20.27;71.32
66196;BME280;53000;45.182;5.736;2023-09-19T02:25:28;99321.94;;;20.27;71.66
66196;BME280;53000;45.182;5.736;2023-09-19T02:27:54;99321.69;;;20.29;71.55
66196;BME280;53000;45.182;5.736;2023-09-19T02:30:19;99323.88;;;20.27;71.27
66196;BME280;53000;45.182;5.736;2023-09-19T02:32:48;99315.84;;;20.25;70.56
66196;BME280;53000;45.182;5.736;2023-09-19T02:35:14;99321.44;;;20.18;70.68
66196;BME280;53000;45.182;5.736;2023-09-19T02:37:40;99329.50;;;20.13;70.72
66196;BME280;53000;45.182;5.736;2023-09-19T02:40:05;99335.25;;;20.12;71.15
66196;BME280;53000;45.182;5.736;2023-09-19T02:42:44;99325.09;;;20.12;71.09
66196;BME280;53000;45.182;5.736;2023-09-19T02:45:14;99326.53;;;20.15;71.35
66196;BME280;53000;45.182;5.736;2023-09-19T02:47:42;99330.38;;;20.14;71.07
66196;BME280;53000;45.182;5.736;2023-09-19T02:50:08;99323.78;;;20.15;71.18
66196;BME280;53000;45.182;5.736;2023-09-19T02:52:37;99324.41;;;20.17;71.28
66196;BME280;53000;45.182;5.736;2023-09-19T02:55:03;99325.50;;;20.16;71.23
66196;BME280;53000;45.182;5.736;2023-09-19T02:57:29;99327.38;;;20.15;70.76
66196;BME280;53000;45.182;5.736;2023-09-19T02:59:58;99321.25;;;20.13;70.88
66196;BME280;53000;45.182;5.736;2023-09-19T03:02:25;99316.03;;;20.12;70.89
66196;BME280;53000;45.182;5.736;2023-09-19T03:04:53;99312.19;;;20.13;70.96
66196;BME280;53000;45.182;5.736;2023-09-19T03:07:18;99311.56;;;20.11;71.07
66196;BME280;53000;45.182;5.736;2023-09-19T03:09:43;99312.41;;;20.11;70.89
66196;BME280;53000;45.182;5.736;2023-09-19T03:12:10;99314.09;;;20.12;70.81
66196;BME280;53000;45.182;5.736;2023-09-19T03:14:35;99307.78;;;20.12;71.14
66196;BME280;53000;45.182;5.736;2023-09-19T03:17:01;99315.78;;;20.13;71.07
66196;BME280;53000;45.182;5.736;2023-09-19T03:19:30;99315.53;;;20.15;70.81
66196;BME280;53000;45.182;5.736;2023-09-19T03:21:56;99309.00;;;20.16;71.01
66196;BME280;53000;45.182;5.736;2023-09-19T03:24:22;99306.00;;;20.17;70.77
66196;BME280;53000;45.182;5.736;2023-09-19T03:26:48;99314.00;;;20.19;70.84
66196;BME280;53000;45.182;5.736;2023-09-19T03:29:14;99318.06;;;20.16;70.79
66196;BME280;53000;45.182;5.736;2023-09-19T03:31:41;99316.38;;;20.15;71.08
66196;BME280;53000;45.182;5.736;2023-09-19T03:34:06;99316.63;;;20.14;71.06
66196;BME280;53000;45.182;5.736;2023-09-19T03:36:31;99319.13;;;20.15;71.40
66196;BME280;53000;45.182;5.736;2023-09-19T03:38:59;99325.00;;;20.19;71.26
66196;BME280;53000;45.182;5.736;2023-09-19T03:41:24;99322.03;;;20.20;71.06
66196;BME280;53000;45.182;5.736;2023-09-19T03:43:50;99316.91;;;20.24;70.78
66196;BME280;53000;45.182;5.736;2023-09-19T03:46:15;99326.22;;;20.23;70.56
66196;BME280;53000;45.182;5.736;2023-09-19T03:48:41;99328.16;;;20.22;70.96
66196;BME280;53000;45.182;5.736;2023-09-19T03:51:06;99328.16;;;20.22;70.77
66196;BME280;53000;45.182;5.736;2023-09-19T03:53:31;99326.44;;;20.21;70.87
66196;BME280;53000;45.182;5.736;2023-09-19T03:55:57;99331.13;;;20.21;70.68
66196;BME280;53000;45.182;5.736;2023-09-19T03:58:22;99330.91;;;20.22;71.08
66196;BME280;53000;45.182;5.736;2023-09-19T04:00:48;99327.53;;;20.20;70.52
66196;BME280;53000;45.182;5.736;2023-09-19T04:03:15;99319.72;;;20.17;70.98
66196;BME280;53000;45.182;5.736;2023-09-19T04:05:45;99327.16;;;20.17;71.01
66196;BME280;53000;45.182;5.736;2023-09-19T04:08:12;99332.66;;;20.17;70.93
66196;BME280;53000;45.182;5.736;2023-09-19T04:10:37;99335.63;;;20.15;70.85
66196;BME280;53000;45.182;5.736;2023-09-19T04:13:03;99344.13;;;20.14;70.91
66196;BME280;53000;45.182;5.736;2023-09-19T04:15:29;99344.13;;;20.14;70.91
66196;BME280;53000;45.182;5.736;2023-09-19T04:17:54;99335.88;;;20.14;71.11
66196;BME280;53000;45.182;5.736;2023-09-19T04:20:20;99338.00;;;20.12;70.98
66196;BME280;53000;45.182;5.736;2023-09-19T04:22:47;99335.69;;;20.09;71.06
66196;BME280;53000;45.182;5.736;2023-09-19T04:25:13;99338.66;;;20.07;71.46
66196;BME280;53000;45.182;5.736;2023-09-19T04:27:38;99340.38;;;20.08;71.21
66196;BME280;53000;45.182;5.736;2023-09-19T04:30:05;99342.88;;;20.10;71.32
66196;BME280;53000;45.182;5.736;2023-09-19T04:32:37;99336.91;;;20.13;71.74
66196;BME280;53000;45.182;5.736;2023-09-19T04:35:10;99338.38;;;20.15;70.99
66196;BME280;53000;45.182;5.736;2023-09-19T04:37:37;99338.75;;;20.19;71.67
66196;BME280;53000;45.182;5.736;2023-09-19T04:40:04;99341.88;;;20.22;71.44
66196;BME280;53000;45.182;5.736;2023-09-19T04:42:31;99343.09;;;20.27;71.41
66196;BME280;53000;45.182;5.736;2023-09-19T04:44:56;99341.78;;;20.29;71.41
66196;BME280;53000;45.182;5.736;2023-09-19T04:47:22;99347.03;;;20.31;71.19
66196;BME280;53000;45.182;5.736;2023-09-19T04:49:47;99347.44;;;20.34;71.46
66196;BME280;53000;45.182;5.736;2023-09-19T04:52:13;99355.22;;;20.37;70.99
66196;BME280;53000;45.182;5.736;2023-09-19T04:54:40;99357.38;;;20.35;70.72
66196;BME280;53000;45.182;5.736;2023-09-19T04:57:06;99358.91;;;20.31;70.86
66196;BME280;53000;45.182;5.736;2023-09-19T04:59:32;99366.97;;;20.26;70.91
66196;BME280;53000;45.182;5.736;2023-09-19T05:01:58;99363.63;;;20.24;71.12
66196;BME280;53000;45.182;5.736;2023-09-19T05:04:23;99371.50;;;20.20;71.14
66196;BME280;53000;45.182;5.736;2023-09-19T05:06:49;99374.25;;;20.20;71.21
66196;BME280;53000;45.182;5.736;2023-09-19T05:09:14;99374.69;;;20.17;70.93
66196;BME280;53000;45.182;5.736;2023-09-19T05:11:40;99376.00;;;20.15;70.98
66196;BME280;53000;45.182;5.736;2023-09-19T05:14:06;99374.56;;;20.12;71.64
66196;BME280;53000;45.182;5.736;2023-09-19T05:16:31;99375.25;;;20.08;71.18
66196;BME280;53000;45.182;5.736;2023-09-19T05:18:57;99380.97;;;20.06;71.74
66196;BME280;53000;45.182;5.736;2023-09-19T05:21:25;99379.88;;;20.07;71.64
66196;BME280;53000;45.182;5.736;2023-09-19T05:23:54;99387.28;;;20.07;72.00
66196;BME280;53000;45.182;5.736;2023-09-19T05:26:19;99385.84;;;20.04;71.92
66196;BME280;53000;45.182;5.736;2023-09-19T05:28:46;99388.13;;;20.07;71.80
66196;BME280;53000;45.182;5.736;2023-09-19T05:31:13;99395.31;;;20.08;71.46
66196;BME280;53000;45.182;5.736;2023-09-19T05:33:39;99397.84;;;20.10;71.75
66196;BME280;53000;45.182;5.736;2023-09-19T05:36:05;99402.66;;;20.14;71.49
66196;BME280;53000;45.182;5.736;2023-09-19T05:38:30;99396.69;;;20.17;71.30
66196;BME280;53000;45.182;5.736;2023-09-19T05:40:56;99399.00;;;20.20;70.57
66196;BME280;53000;45.182;5.736;2023-09-19T05:43:21;99393.72;;;20.19;70.17
66196;BME280;53000;45.182;5.736;2023-09-19T05:45:47;99408.16;;;20.14;69.80
66196;BME280;53000;45.182;5.736;2023-09-19T05:48:14;99403.34;;;20.10;69.55
66196;BME280;53000;45.182;5.736;2023-09-19T05:50:41;99414.56;;;20.08;69.65
66196;BME280;53000;45.182;5.736;2023-09-19T05:53:07;99414.16;;;20.05;69.15
66196;BME280;53000;45.182;5.736;2023-09-19T05:55:33;99403.84;;;20.00;69.27
66196;BME280;53000;45.182;5.736;2023-09-19T05:57:58;99416.97;;;19.98;69.07
66196;BME280;53000;45.182;5.736;2023-09-19T06:00:25;99421.66;;;19.97;69.14
66196;BME280;53000;45.182;5.736;2023-09-19T06:02:53;99423.09;;;20.00;69.27
66196;BME280;53000;45.182;5.736;2023-09-19T06:05:19;99427.06;;;20.04;69.39
66196;BME280;53000;45.182;5.736;2023-09-19T06:07:45;99428.28;;;20.08;69.11
66196;BME280;53000;45.182;5.736;2023-09-19T06:10:10;99427.81;;;20.11;69.31
66196;BME280;53000;45.182;5.736;2023-09-19T06:12:42;99432.28;;;20.12;69.21
66196;BME280;53000;45.182;5.736;2023-09-19T06:15:09;99431.19;;;20.13;69.10
66196;BME280;53000;45.182;5.736;2023-09-19T06:17:40;99433.09;;;20.13;68.78
66196;BME280;53000;45.182;5.736;2023-09-19T06:20:06;99437.75;;;20.12;68.93
66196;BME280;53000;45.182;5.736;2023-09-19T06:22:44;99434.19;;;20.12;68.80
66196;BME280;53000;45.182;5.736;2023-09-19T06:25:11;99447.53;;;20.08;68.95
66196;BME280;53000;45.182;5.736;2023-09-19T06:27:39;99444.38;;;20.05;69.07
66196;BME280;53000;45.182;5.736;2023-09-19T06:30:09;99439.72;;;20.05;69.14
66196;BME280;53000;45.182;5.736;2023-09-19T06:32:36;99439.97;;;20.04;68.59
66196;BME280;53000;45.182;5.736;2023-09-19T06:35:02;99439.72;;;20.05;68.83
66196;BME280;53000;45.182;5.736;2023-09-19T06:37:32;99444.16;;;20.06;68.42
66196;BME280;53000;45.182;5.736;2023-09-19T06:39:59;99438.66;;;20.06;68.78
66196;BME280;53000;45.182;5.736;2023-09-19T06:42:25;99447.31;;;20.10;68.88
66196;BME280;53000;45.182;5.736;2023-09-19T06:44:50;99444.31;;;20.11;68.58
66196;BME280;53000;45.182;5.736;2023-09-19T06:47:16;99449.81;;;20.11;68.31
66196;BME280;53000;45.182;5.736;2023-09-19T06:49:42;99451.34;;;20.07;68.61
66196;BME280;53000;45.182;5.736;2023-09-19T06:52:10;99451.59;;;20.06;68.93
66196;BME280;53000;45.182;5.736;2023-09-19T06:54:36;99452.41;;;20.06;68.88
66196;BME280;53000;45.182;5.736;2023-09-19T06:57:03;99454.41;;;19.99;68.99
66196;BME280;53000;45.182;5.736;2023-09-19T06:59:29;99454.00;;;19.95;69.23
66196;BME280;53000;45.182;5.736;2023-09-19T07:01:54;99449.56;;;19.94;69.30
66196;BME280;53000;45.182;5.736;2023-09-19T07:04:20;99453.38;;;19.93;69.59
66196;BME280;53000;45.182;5.736;2023-09-19T07:06:52;99457.78;;;19.94;69.60
66196;BME280;53000;45.182;5.736;2023-09-19T07:09:17;99456.75;;;19.95;69.61
66196;BME280;53000;45.182;5.736;2023-09-19T07:11:44;99460.13;;;19.97;69.17
66196;BME280;53000;45.182;5.736;2023-09-19T07:14:10;99463.47;;;19.99;69.30
66196;BME280;53000;45.182;5.736;2023-09-19T07:16:37;99467.28;;;19.98;69.45
66196;BME280;53000;45.182;5.736;2023-09-19T07:19:04;99459.50;;;19.95;69.44
66196;BME280;53000;45.182;5.736;2023-09-19T07:21:29;99464.38;;;19.93;69.41
66196;BME280;53000;45.182;5.736;2023-09-19T07:23:55;99466.03;;;19.94;69.62
66196;BME280;53000;45.182;5.736;2023-09-19T07:26:20;99472.84;;;19.92;69.35
66196;BME280;53000;45.182;5.736;2023-09-19T07:28:45;99465.00;;;19.95;69.32
66196;BME280;53000;45.182;5.736;2023-09-19T07:31:11;99466.22;;;19.99;69.96
66196;BME280;53000;45.182;5.736;2023-09-19T07:33:40;99475.00;;;20.08;69.48
66196;BME280;53000;45.182;5.736;2023-09-19T07:36:09;99467.53;;;20.15;69.57
66196;BME280;53000;45.182;5.736;2023-09-19T07:38:35;99470.81;;;20.24;69.23
66196;BME280;53000;45.182;5.736;2023-09-19T07:41:01;99475.41;;;20.30;69.33
66196;BME280;53000;45.182;5.736;2023-09-19T07:43:27;99475.31;;;20.37;68.98
66196;BME280;53000;45.182;5.736;2023-09-19T07:45:53;99479.31;;;20.41;68.64
66196;BME280;53000;45.182;5.736;2023-09-19T07:48:18;99476.47;;;20.48;68.29
66196;BME280;53000;45.182;5.736;2023-09-19T07:50:43;99480.41;;;20.58;68.29
66196;BME280;53000;45.182;5.736;2023-09-19T07:53:09;99472.22;;;20.70;68.21
66196;BME280;53000;45.182;5.736;2023-09-19T07:55:34;99474.66;;;20.78;67.50
66196;BME280;53000;45.182;5.736;2023-09-19T07:58:00;99469.06;;;20.85;67.81
66196;BME280;53000;45.182;5.736;2023-09-19T08:00:25;99476.75;;;20.95;67.72
66196;BME280;53000;45.182;5.736;2023-09-19T08:02:51;99476.81;;;21.07;67.90
66196;BME280;53000;45.182;5.736;2023-09-19T08:05:19;99478.31;;;21.21;67.80
66196;BME280;53000;45.182;5.736;2023-09-19T08:07:46;99474.97;;;21.31;66.57
66196;BME280;53000;45.182;5.736;2023-09-19T08:10:14;99476.56;;;21.38;66.40
66196;BME280;53000;45.182;5.736;2023-09-19T08:12:41;99468.59;;;21.49;66.51
66196;BME280;53000;45.182;5.736;2023-09-19T08:15:14;99475.78;;;21.61;66.48
66196;BME280;53000;45.182;5.736;2023-09-19T08:17:40;99472.59;;;21.76;65.29
66196;BME280;53000;45.182;5.736;2023-09-19T08:20:07;99472.25;;;21.96;66.13
66196;BME280;53000;45.182;5.736;2023-09-19T08:22:32;99470.97;;;22.22;66.42
66196;BME280;53000;45.182;5.736;2023-09-19T08:24:58;99472.00;;;22.45;65.83
66196;BME280;53000;45.182;5.736;2023-09-19T08:27:23;99464.31;;;22.59;65.41
66196;BME280;53000;45.182;5.736;2023-09-19T08:29:52;99470.03;;;22.69;65.02
66196;BME280;53000;45.182;5.736;2023-09-19T08:32:18;99464.84;;;22.73;64.44
66196;BME280;53000;45.182;5.736;2023-09-19T08:34:48;99472.66;;;22.76;64.94
66196;BME280;53000;45.182;5.736;2023-09-19T08:37:14;99469.66;;;22.77;64.53
66196;BME280;53000;45.182;5.736;2023-09-19T08:39:39;99474.59;;;22.75;64.05
66196;BME280;53000;45.182;5.736;2023-09-19T08:42:05;99469.75;;;22.82;63.22
66196;BME280;53000;45.182;5.736;2023-09-19T08:44:36;99475.81;;;22.96;63.82
66196;BME280;53000;45.182;5.736;2023-09-19T08:47:14;99464.25;;;23.11;63.46
66196;BME280;53000;45.182;5.736;2023-09-19T08:52:22;99463.25;;;23.46;63.31
66196;BME280;53000;45.182;5.736;2023-09-19T08:54:51;99460.56;;;23.68;62.94
66196;BME280;53000;45.182;5.736;2023-09-19T08:57:19;99458.50;;;23.92;62.48
66196;BME280;53000;45.182;5.736;2023-09-19T08:59:48;99463.84;;;24.55;61.91
66196;BME280;53000;45.182;5.736;2023-09-19T09:02:17;99458.88;;;25.55;60.12
66196;BME280;53000;45.182;5.736;2023-09-19T09:04:48;99456.28;;;26.61;59.03
66196;BME280;53000;45.182;5.736;2023-09-19T09:07:14;99452.69;;;27.64;57.43
66196;BME280;53000;45.182;5.736;2023-09-19T09:09:42;99451.41;;;28.68;55.24
66196;BME280;53000;45.182;5.736;2023-09-19T09:12:14;99454.19;;;29.67;51.11
66196;BME280;53000;45.182;5.736;2023-09-19T09:14:44;99452.88;;;30.47;49.73
66196;BME280;53000;45.182;5.736;2023-09-19T09:17:10;99456.03;;;31.27;49.16
66196;BME280;53000;45.182;5.736;2023-09-19T09:19:36;99461.94;;;31.25;47.60
66196;BME280;53000;45.182;5.736;2023-09-19T09:22:09;99460.69;;;30.93;42.15
66196;BME280;53000;45.182;5.736;2023-09-19T09:24:35;99465.63;;;30.77;46.23
66196;BME280;53000;45.182;5.736;2023-09-19T09:27:06;99463.75;;;30.73;42.53
66196;BME280;53000;45.182;5.736;2023-09-19T09:29:48;99456.34;;;30.87;45.98
66196;BME280;53000;45.182;5.736;2023-09-19T09:34:56;99449.81;;;31.30;45.80
66196;BME280;53000;45.182;5.736;2023-09-19T09:37:24;99455.59;;;31.57;45.26
66196;BME280;53000;45.182;5.736;2023-09-19T09:39:57;99452.78;;;31.38;43.78
66196;BME280;53000;45.182;5.736;2023-09-19T09:42:34;99443.03;;;31.36;44.03
66196;BME280;53000;45.182;5.736;2023-09-19T09:45:20;99451.03;;;31.62;44.02
66196;BME280;53000;45.182;5.736;2023-09-19T09:48:06;99448.53;;;32.12;43.23
66196;BME280;53000;45.182;5.736;2023-09-19T09:50:47;99445.06;;;32.62;42.96
66196;BME280;53000;45.182;5.736;2023-09-19T09:53:23;99446.47;;;33.14;42.36
66196;BME280;53000;45.182;5.736;2023-09-19T09:58:26;99440.19;;;34.21;41.10
66196;BME280;53000;45.182;5.736;2023-09-19T10:00:58;99432.69;;;34.48;34.68
66196;BME280;53000;45.182;5.736;2023-09-19T10:03:38;99440.00;;;34.58;36.89
66196;BME280;53000;45.182;5.736;2023-09-19T10:06:06;99440.19;;;34.21;37.97
66196;BME280;53000;45.182;5.736;2023-09-19T10:08:36;99436.38;;;34.17;36.30
66196;BME280;53000;45.182;5.736;2023-09-19T10:11:15;99441.03;;;34.31;37.11
66196;BME280;53000;45.182;5.736;2023-09-19T10:13:42;99440.06;;;34.35;37.82
66196;BME280;53000;45.182;5.736;2023-09-19T10:16:09;99436.03;;;34.19;35.76
66196;BME280;53000;45.182;5.736;2023-09-19T10:18:36;99432.94;;;33.98;36.53
66196;BME280;53000;45.182;5.736;2023-09-19T10:21:04;99429.56;;;33.87;36.73
66196;BME280;53000;45.182;5.736;2023-09-19T10:23:32;99424.72;;;34.10;37.22
66196;BME280;53000;45.182;5.736;2023-09-19T10:26:01;99422.03;;;34.36;37.01
66196;BME280;53000;45.182;5.736;2023-09-19T10:28:28;99423.59;;;34.51;35.60
66196;BME280;53000;45.182;5.736;2023-09-19T10:30:54;99416.94;;;34.38;34.72
66196;BME280;53000;45.182;5.736;2023-09-19T10:33:23;99417.56;;;34.27;36.13
66196;BME280;53000;45.182;5.736;2023-09-19T10:35:53;99418.16;;;34.15;32.48
66196;BME280;53000;45.182;5.736;2023-09-19T10:38:24;99410.59;;;33.93;35.32
66196;BME280;53000;45.182;5.736;2023-09-19T10:40:54;99404.41;;;33.82;35.65
66196;BME280;53000;45.182;5.736;2023-09-19T10:43:25;99399.16;;;33.89;32.67
66196;BME280;53000;45.182;5.736;2023-09-19T10:45:50;99394.03;;;33.91;34.04
66196;BME280;53000;45.182;5.736;2023-09-19T10:48:18;99397.47;;;33.79;33.17
66196;BME280;53000;45.182;5.736;2023-09-19T10:53:20;99391.91;;;33.88;35.27
66196;BME280;53000;45.182;5.736;2023-09-19T10:55:53;99397.00;;;33.86;34.70
66196;BME280;53000;45.182;5.736;2023-09-19T10:58:27;99382.72;;;33.74;34.53
66196;BME280;53000;45.182;5.736;2023-09-19T11:01:00;99386.38;;;33.74;34.32
66196;BME280;53000;45.182;5.736;2023-09-19T11:03:31;99389.47;;;33.50;33.33
66196;BME280;53000;45.182;5.736;2023-09-19T11:06:04;99381.13;;;33.00;33.32
66196;BME280;53000;45.182;5.736;2023-09-19T11:09:02;99379.34;;;32.68;35.40
66196;BME280;53000;45.182;5.736;2023-09-19T11:11:46;99376.13;;;32.74;34.87
66196;BME280;53000;45.182;5.736;2023-09-19T11:17:35;99374.13;;;32.89;34.65
66196;BME280;53000;45.182;5.736;2023-09-19T11:30:46;99369.50;;;33.07;35.43
66196;BME280;53000;45.182;5.736;2023-09-19T11:49:18;99357.75;;;33.05;33.05
66196;BME280;53000;45.182;5.736;2023-09-19T11:51:50;99352.25;;;33.13;34.87
66196;BME280;53000;45.182;5.736;2023-09-19T11:54:17;99352.19;;;33.27;34.52
66196;BME280;53000;45.182;5.736;2023-09-19T11:56:49;99346.81;;;33.39;34.15
66196;BME280;53000;45.182;5.736;2023-09-19T12:02:00;99337.19;;;33.54;34.11
66196;BME280;53000;45.182;5.736;2023-09-19T12:04:41;99331.97;;;33.62;34.42
66196;BME280;53000;45.182;5.736;2023-09-19T12:07:14;99329.53;;;33.69;32.82
66196;BME280;53000;45.182;5.736;2023-09-19T12:09:45;99332.16;;;33.65;32.55
66196;BME280;53000;45.182;5.736;2023-09-19T12:12:26;99327.78;;;33.59;31.85
66196;BME280;53000;45.182;5.736;2023-09-19T12:14:56;99319.28;;;33.64;33.32
66196;BME280;53000;45.182;5.736;2023-09-19T12:17:38;99318.13;;;33.65;33.89
66196;BME280;53000;45.182;5.736;2023-09-19T12:20:06;99326.78;;;33.55;33.61
66196;BME280;53000;45.182;5.736;2023-09-19T12:22:47;99312.47;;;33.34;33.52
66196;BME280;53000;45.182;5.736;2023-09-19T12:25:14;99313.34;;;33.20;32.26
66196;BME280;53000;45.182;5.736;2023-09-19T12:27:46;99319.66;;;33.04;33.84
66196;BME280;53000;45.182;5.736;2023-09-19T12:30:27;99308.41;;;32.81;33.46
66196;BME280;53000;45.182;5.736;2023-09-19T12:32:53;99304.81;;;32.67;33.49
66196;BME280;53000;45.182;5.736;2023-09-19T12:35:29;99306.91;;;32.61;34.51
66196;BME280;53000;45.182;5.736;2023-09-19T12:37:55;99305.03;;;32.43;34.68
66196;BME280;53000;45.182;5.736;2023-09-19T12:40:22;99300.22;;;32.21;34.75
66196;BME280;53000;45.182;5.736;2023-09-19T12:42:53;99304.75;;;31.89;34.36
66196;BME280;53000;45.182;5.736;2023-09-19T12:45:23;99297.88;;;31.81;35.05
66196;BME280;53000;45.182;5.736;2023-09-19T12:48:17;99295.00;;;31.86;35.76
66196;BME280;53000;45.182;5.736;2023-09-19T12:51:08;99288.06;;;31.97;35.21
66196;BME280;53000;45.182;5.736;2023-09-19T12:53:38;99292.31;;;32.09;34.84
66196;BME280;53000;45.182;5.736;2023-09-19T12:56:10;99286.50;;;32.19;33.88
66196;BME280;53000;45.182;5.736;2023-09-19T12:58:52;99284.97;;;32.13;33.56
66196;BME280;53000;45.182;5.736;2023-09-19T13:01:21;99275.53;;;32.09;33.10
66196;BME280;53000;45.182;5.736;2023-09-19T13:06:43;99265.25;;;31.90;34.22
66196;BME280;53000;45.182;5.736;2023-09-19T13:09:10;99261.50;;;31.81;33.98
66196;BME280;53000;45.182;5.736;2023-09-19T13:11:37;99266.91;;;31.77;34.72
66196;BME280;53000;45.182;5.736;2023-09-19T13:14:23;99260.47;;;31.77;34.27
66196;BME280;53000;45.182;5.736;2023-09-19T13:17:03;99262.13;;;31.64;34.55
66196;BME280;53000;45.182;5.736;2023-09-19T13:19:48;99258.38;;;31.55;34.72
66196;BME280;53000;45.182;5.736;2023-09-19T13:22:39;99256.81;;;31.49;34.52
66196;BME280;53000;45.182;5.736;2023-09-19T13:25:08;99249.28;;;31.49;33.43
66196;BME280;53000;45.182;5.736;2023-09-19T13:27:39;99242.00;;;31.48;34.81
66196;BME280;53000;45.182;5.736;2023-09-19T13:30:05;99222.66;;;31.52;33.74
66196;BME280;53000;45.182;5.736;2023-09-19T13:32:32;99220.97;;;31.51;33.99
66196;BME280;53000;45.182;5.736;2023-09-19T13:34:58;99227.84;;;31.58;35.27
66196;BME280;53000;45.182;5.736;2023-09-19T13:37:23;99233.94;;;31.74;35.41
66196;BME280;53000;45.182;5.736;2023-09-19T13:39:48;99226.38;;;31.89;34.11
66196;BME280;53000;45.182;5.736;2023-09-19T13:42:14;99223.16;;;31.95;33.60
66196;BME280;53000;45.182;5.736;2023-09-19T13:44:41;99218.06;;;31.97;33.57
66196;BME280;53000;45.182;5.736;2023-09-19T13:47:06;99215.81;;;31.99;33.42
66196;BME280;53000;45.182;5.736;2023-09-19T13:49:35;99222.00;;;32.10;33.70
66196;BME280;53000;45.182;5.736;2023-09-19T13:52:01;99233.81;;;32.21;34.16
66196;BME280;53000;45.182;5.736;2023-09-19T13:54:29;99221.16;;;32.24;32.05
66196;BME280;53000;45.182;5.736;2023-09-19T13:56:54;99222.75;;;32.16;32.81
66196;BME280;53000;45.182;5.736;2023-09-19T13:59:19;99219.94;;;32.16;33.94
66196;BME280;53000;45.182;5.736;2023-09-19T14:01:46;99215.78;;;32.13;32.48
66196;BME280;53000;45.182;5.736;2023-09-19T14:04:11;99207.19;;;32.10;32.60
66196;BME280;53000;45.182;5.736;2023-09-19T14:06:37;99211.34;;;31.98;32.41
66196;BME280;53000;45.182;5.736;2023-09-19T14:09:02;99209.06;;;32.01;33.26